createdAt,value
2019-04-18T00:01:12.045Z,7.80
2019-04-18T00:03:56.166Z,7.33
2019-04-18T00:06:25.851Z,6.30
2019-04-18T00:08:53.082Z,6.97
2019-04-18T00:11:20.374Z,8.60
2019-04-18T00:13:47.702Z,7.23
2019-04-18T00:16:14.959Z,7.03
2019-04-18T00:18:42.510Z,6.30
2019-04-18T00:21:09.788Z,6.40
2019-04-18T00:23:37.063Z,6.83
2019-04-18T00:26:10.027Z,6.40
2019-04-18T00:28:33.796Z,7.53
2019-04-18T00:31:04.735Z,7.47
2019-04-18T00:33:30.417Z,6.27
2019-04-18T00:35:57.619Z,8.47
2019-04-18T00:38:26.830Z,6.80
2019-04-18T00:40:54.364Z,7.20
2019-04-18T00:43:23.903Z,6.97
2019-04-18T00:45:50.716Z,6.40
2019-04-18T00:48:17.812Z,6.37
2019-04-18T00:50:44.887Z,7.10
2019-04-18T00:53:12.124Z,6.57
2019-04-18T00:55:39.360Z,6.70
2019-04-18T00:58:06.594Z,5.50
2019-04-18T01:00:37.848Z,5.43
2019-04-18T01:03:03.807Z,5.67
2019-04-18T01:05:30.872Z,6.13
2019-04-18T01:07:58.098Z,6.33
2019-04-18T01:10:25.682Z,5.87
2019-04-18T01:12:53.396Z,5.03
2019-04-18T01:15:23.565Z,5.83
2019-04-18T01:17:50.223Z,5.93
2019-04-18T01:20:18.174Z,5.73
2019-04-18T01:22:48.882Z,5.60
2019-04-18T01:25:14.797Z,5.60
2019-04-18T01:27:41.977Z,4.87
2019-04-18T01:30:11.150Z,5.00
2019-04-18T01:32:38.457Z,5.40
2019-04-18T01:35:05.853Z,5.20
2019-04-18T01:37:34.449Z,5.30
2019-04-18T01:40:02.837Z,4.93
2019-04-18T01:42:35.654Z,4.70
2019-04-18T01:45:18.968Z,4.67
2019-04-18T01:47:44.810Z,4.37
2019-04-18T01:50:16.813Z,4.20
2019-04-18T01:52:41.744Z,3.93
2019-04-18T01:55:09.257Z,4.80
2019-04-18T01:57:36.428Z,4.00
2019-04-18T02:00:05.933Z,4.00
2019-04-18T02:02:33.153Z,4.13
2019-04-18T02:05:02.748Z,4.40
2019-04-18T02:07:29.877Z,3.80
2019-04-18T02:09:57.443Z,4.63
2019-04-18T02:12:25.679Z,3.80
2019-04-18T02:14:58.293Z,4.40
2019-04-18T02:17:22.162Z,4.60
2019-04-18T02:19:49.435Z,4.70
2019-04-18T02:22:17.099Z,4.50
2019-04-18T02:24:44.383Z,3.80
2019-04-18T02:27:11.593Z,4.30
2019-04-18T02:29:39.117Z,4.47
2019-04-18T02:32:08.225Z,4.30
2019-04-18T02:34:35.390Z,4.00
2019-04-18T02:37:02.788Z,4.43
2019-04-18T02:39:30.039Z,4.50
2019-04-18T02:41:57.214Z,4.43
2019-04-18T02:44:27.357Z,5.30
2019-04-18T02:46:53.810Z,4.37
2019-04-18T02:49:20.999Z,4.63
2019-04-18T02:51:51.107Z,4.67
2019-04-18T02:54:17.330Z,4.20
2019-04-18T03:00:02.780Z,5.03
2019-04-18T03:02:49.406Z,4.10
2019-04-18T03:05:31.744Z,4.00
2019-04-18T03:07:55.134Z,4.27
2019-04-18T03:10:26.990Z,4.30
2019-04-18T03:17:00.155Z,4.20
2019-04-18T03:25:41.287Z,4.60
2019-04-18T03:28:10.904Z,4.17
2019-04-18T03:34:29.205Z,4.90
2019-04-18T03:46:30.103Z,4.90
2019-04-18T03:48:59.087Z,4.23
2019-04-18T03:54:09.405Z,5.00
2019-04-18T03:56:45.548Z,5.20
2019-04-18T03:59:18.571Z,5.13
2019-04-18T04:02:02.380Z,5.23
2019-04-18T04:04:36.873Z,5.10
2019-04-18T04:10:17.558Z,5.50
2019-04-18T04:12:44.746Z,4.60
2019-04-18T04:15:52.750Z,4.73
2019-04-18T04:22:11.996Z,5.20
2019-04-18T04:24:44.267Z,4.80
2019-04-18T04:27:11.956Z,4.90
2019-04-18T04:30:00.340Z,5.43
2019-04-18T04:33:08.367Z,4.77
2019-04-18T04:38:55.687Z,4.37
2019-04-18T04:51:25.697Z,5.63
2019-04-18T04:54:12.543Z,5.70
2019-04-18T04:57:21.100Z,5.63
2019-04-18T05:06:19.021Z,5.60
2019-04-18T05:09:27.025Z,5.87
2019-04-18T05:11:54.842Z,5.57
2019-04-18T05:14:22.797Z,6.00
2019-04-18T05:16:53.573Z,4.67
2019-04-18T05:19:25.312Z,5.57
2019-04-18T05:21:52.526Z,6.20
2019-04-18T05:24:24.515Z,6.13
2019-04-18T05:26:48.883Z,5.47
2019-04-18T05:29:16.413Z,4.80
2019-04-18T05:31:43.999Z,5.43
2019-04-18T05:34:15.979Z,5.10
2019-04-18T05:36:55.342Z,5.77
2019-04-18T05:39:10.018Z,5.57
2019-04-18T05:41:37.413Z,5.10
2019-04-18T05:44:04.900Z,4.97
2019-04-18T05:46:40.951Z,5.53
2019-04-18T05:49:12.217Z,6.30
2019-04-18T05:51:53.712Z,5.63
2019-04-18T05:54:24.417Z,5.50
2019-04-18T05:56:51.784Z,5.37
2019-04-18T05:59:35.446Z,5.47
2019-04-18T06:02:23.582Z,6.30
2019-04-18T06:05:11.144Z,5.30
2019-04-18T06:07:41.863Z,5.23
2019-04-18T06:10:13.919Z,5.90
2019-04-18T06:12:51.071Z,5.10
2019-04-18T06:15:36.636Z,5.77
2019-04-18T06:18:22.241Z,5.30
2019-04-18T06:20:49.463Z,5.80
2019-04-18T06:23:17.107Z,5.50
2019-04-18T06:25:52.238Z,6.10
2019-04-18T06:28:40.682Z,5.33
2019-04-18T06:31:26.186Z,5.40
2019-04-18T06:33:53.637Z,7.10
2019-04-18T06:36:23.393Z,6.13
2019-04-18T06:38:51.758Z,5.57
2019-04-18T06:41:19.299Z,6.60
2019-04-18T06:43:46.514Z,5.70
2019-04-18T06:46:17.716Z,6.07
2019-04-18T06:48:43.354Z,6.13
2019-04-18T06:51:10.508Z,5.30
2019-04-18T06:53:37.771Z,5.37
2019-04-18T06:56:07.281Z,5.43
2019-04-18T06:58:35.907Z,5.83
2019-04-18T07:01:03.857Z,5.33
2019-04-18T07:03:31.931Z,5.40
2019-04-18T07:06:00.531Z,4.80
2019-04-18T07:08:44.785Z,5.90
2019-04-18T07:11:19.557Z,4.87
2019-04-18T07:13:52.551Z,4.53
2019-04-18T07:16:19.683Z,4.43
2019-04-18T07:18:46.845Z,4.77
2019-04-18T07:21:42.447Z,4.17
2019-04-18T07:24:09.674Z,4.57
2019-04-18T07:26:36.870Z,4.30
2019-04-18T07:29:04.169Z,3.80
2019-04-18T07:31:32.345Z,3.70
2019-04-18T07:33:59.861Z,3.77
2019-04-18T07:36:27.167Z,3.80
2019-04-18T07:38:57.282Z,4.07
2019-04-18T07:41:23.307Z,3.77
2019-04-18T07:43:50.850Z,3.80
2019-04-18T07:46:19.162Z,3.70
2019-04-18T07:48:46.346Z,4.23
2019-04-18T07:51:13.571Z,3.17
2019-04-18T07:53:41.014Z,3.37
2019-04-18T07:56:09.434Z,3.83
2019-04-18T07:58:37.305Z,3.60
2019-04-18T08:01:05.386Z,3.60
2019-04-18T08:03:40.169Z,3.45
2019-04-18T08:06:03.109Z,4.12
2019-04-18T08:08:30.268Z,3.77
2019-04-18T08:10:57.685Z,5.07
2019-04-18T08:13:25.068Z,4.73
2019-04-18T08:15:55.351Z,4.10
2019-04-18T08:18:25.972Z,4.60
2019-04-18T08:20:50.804Z,4.40
2019-04-18T08:23:24.611Z,5.60
2019-04-18T08:25:47.004Z,4.73
2019-04-18T08:28:16.450Z,4.53
2019-04-18T08:30:43.351Z,4.40
2019-04-18T08:33:10.663Z,3.90
2019-04-18T08:35:56.427Z,4.03
2019-04-18T08:38:32.782Z,3.87
2019-04-18T08:41:03.929Z,4.37
2019-04-18T08:43:43.227Z,4.60
2019-04-18T08:46:11.298Z,4.43
2019-04-18T08:48:38.823Z,4.20
2019-04-18T08:51:31.628Z,4.20
2019-04-18T08:54:20.844Z,3.70
2019-04-18T08:56:48.243Z,4.17
2019-04-18T08:59:38.822Z,3.63
2019-04-18T09:02:04.030Z,3.57
2019-04-18T09:04:31.541Z,3.80
2019-04-18T09:06:59.150Z,3.50
2019-04-18T09:09:29.905Z,5.60
2019-04-18T09:12:01.077Z,3.80
2019-04-18T09:14:25.812Z,3.67
2019-04-18T09:16:54.303Z,3.25
2019-04-18T09:19:21.949Z,4.20
2019-04-18T09:21:52.577Z,3.87
2019-04-18T09:24:22.486Z,4.00
2019-04-18T09:26:48.697Z,4.10
2019-04-18T09:29:16.336Z,3.30
2019-04-18T09:31:46.083Z,4.10
2019-04-18T09:34:13.734Z,3.80
2019-04-18T09:36:41.091Z,4.13
2019-04-18T09:39:09.870Z,4.27
2019-04-18T09:41:37.994Z,4.27
2019-04-18T09:44:05.143Z,3.70
2019-04-18T09:46:32.391Z,4.30
2019-04-18T09:49:00.123Z,4.83
2019-04-18T09:51:29.024Z,4.50
2019-04-18T09:53:56.234Z,5.83
2019-04-18T09:56:23.505Z,5.47
2019-04-18T09:58:50.712Z,5.73
2019-04-18T10:01:17.963Z,5.47
2019-04-18T10:03:45.125Z,5.47
2019-04-18T10:06:12.357Z,5.50
2019-04-18T10:08:40.776Z,5.07
2019-04-18T10:11:10.375Z,5.63
2019-04-18T10:13:37.459Z,6.50
2019-04-18T10:16:06.134Z,5.73
2019-04-18T10:18:33.764Z,6.03
2019-04-18T10:21:04.456Z,6.03
2019-04-18T10:23:31.704Z,5.97
2019-04-18T10:26:16.968Z,4.73
2019-04-18T10:28:49.614Z,5.40
2019-04-18T10:31:17.119Z,4.67
2019-04-18T10:33:44.519Z,4.83
2019-04-18T10:39:58.940Z,4.73
2019-04-18T10:42:26.273Z,5.60
2019-04-18T10:44:53.491Z,6.10
2019-04-18T10:47:20.914Z,6.33
2019-04-18T10:49:48.607Z,4.40
2019-04-18T10:52:16.232Z,4.73
2019-04-18T10:54:45.809Z,4.47
2019-04-18T10:57:12.972Z,4.27
2019-04-18T10:59:40.202Z,4.60
2019-04-18T11:02:07.298Z,4.97
2019-04-18T11:04:34.564Z,4.60
2019-04-18T11:07:01.786Z,4.73
2019-04-18T11:09:29.260Z,4.50
2019-04-18T11:11:56.799Z,4.80
2019-04-18T11:14:23.971Z,4.90
2019-04-18T11:16:51.344Z,4.90
2019-04-18T11:19:18.530Z,4.50
2019-04-18T11:21:46.682Z,4.77
2019-04-18T11:24:13.884Z,4.77
2019-04-18T11:26:41.069Z,5.10
2019-04-18T11:29:08.343Z,4.30
2019-04-18T11:31:35.547Z,4.87
2019-04-18T11:34:03.302Z,3.60
2019-04-18T11:36:30.642Z,4.33
2019-04-18T11:38:58.157Z,4.50
2019-04-18T11:41:25.670Z,4.47
2019-04-18T11:43:53.068Z,3.73
2019-04-18T11:46:20.261Z,4.60
2019-04-18T11:48:47.474Z,3.87
2019-04-18T11:51:14.679Z,3.50
2019-04-18T11:53:42.109Z,5.00
2019-04-18T11:56:12.656Z,3.50
2019-04-18T11:58:39.958Z,3.73
2019-04-18T12:01:31.309Z,3.53
2019-04-18T12:04:14.600Z,4.47
2019-04-18T12:06:41.945Z,3.80
2019-04-18T12:09:09.268Z,2.87
2019-04-18T12:11:37.728Z,3.07
2019-04-18T12:14:05.033Z,3.30
2019-04-18T12:16:35.556Z,2.93
2019-04-18T12:19:01.864Z,3.40
2019-04-18T12:21:29.238Z,3.00
2019-04-18T12:23:56.487Z,3.40
2019-04-18T12:26:24.035Z,3.70
2019-04-18T12:28:51.265Z,2.90
2019-04-18T12:31:30.151Z,3.10
2019-04-18T12:33:47.532Z,3.70
2019-04-18T12:36:15.231Z,3.33
2019-04-18T12:38:42.519Z,3.20
2019-04-18T12:41:12.570Z,3.43
2019-04-18T12:43:39.115Z,2.93
2019-04-18T12:46:06.262Z,3.33
2019-04-18T12:48:33.944Z,3.10
2019-04-18T12:51:01.157Z,3.70
2019-04-18T12:53:28.417Z,3.30
2019-04-18T12:55:57.974Z,3.33
2019-04-18T12:58:25.053Z,2.80
2019-04-18T13:00:53.728Z,3.10
2019-04-18T13:03:22.039Z,3.30
2019-04-18T13:05:49.343Z,3.57
2019-04-18T13:08:25.675Z,3.13
2019-04-18T13:11:11.377Z,3.30
2019-04-18T13:13:48.456Z,3.47
2019-04-18T13:16:23.594Z,3.07
2019-04-18T13:18:51.022Z,3.40
2019-04-18T13:21:18.229Z,2.97
2019-04-18T13:23:45.638Z,3.50
2019-04-18T13:26:12.958Z,3.37
2019-04-18T13:28:40.131Z,3.30
2019-04-18T13:31:07.372Z,3.20
2019-04-18T13:33:34.953Z,3.47
2019-04-18T13:36:03.379Z,3.07
2019-04-18T13:38:30.174Z,3.07
2019-04-18T13:40:57.494Z,3.00
2019-04-18T13:43:24.781Z,3.33
2019-04-18T13:45:52.100Z,3.00
2019-04-18T13:48:19.442Z,3.10
2019-04-18T13:50:46.516Z,2.63
2019-04-18T13:53:13.742Z,3.50
2019-04-18T13:55:40.928Z,3.40
2019-04-18T13:58:08.287Z,3.77
2019-04-18T14:00:36.047Z,3.40
2019-04-18T14:03:03.246Z,3.40
2019-04-18T14:05:30.347Z,2.63
2019-04-18T14:07:58.083Z,3.17
2019-04-18T14:10:25.555Z,2.77
2019-04-18T14:12:53.219Z,3.17
2019-04-18T14:15:20.361Z,2.77
2019-04-18T14:17:47.466Z,3.07
2019-04-18T14:20:16.391Z,3.17
2019-04-18T14:22:43.640Z,3.07
2019-04-18T14:25:10.895Z,2.50
2019-04-18T14:27:38.088Z,3.13
2019-04-18T14:30:06.136Z,2.90
2019-04-18T14:32:34.652Z,2.80
2019-04-18T14:35:02.070Z,2.57
2019-04-18T14:37:29.389Z,3.30
2019-04-18T14:39:56.643Z,2.77
2019-04-18T14:42:23.889Z,3.40
2019-04-18T14:44:51.331Z,3.07
2019-04-18T14:47:18.597Z,2.63
2019-04-18T14:49:46.136Z,2.97
2019-04-18T14:52:14.059Z,3.00
2019-04-18T14:54:41.370Z,2.80
2019-04-18T14:57:08.528Z,3.10
2019-04-18T14:59:36.099Z,3.10
2019-04-18T15:02:05.563Z,3.60
2019-04-18T15:04:32.750Z,3.37
2019-04-18T15:07:00.178Z,3.37
2019-04-18T15:09:40.291Z,3.23
2019-04-18T15:12:08.669Z,2.90
2019-04-18T15:14:36.252Z,3.70
2019-04-18T15:17:03.655Z,3.13
2019-04-18T15:19:30.853Z,3.57
2019-04-18T15:21:58.478Z,2.83
2019-04-18T15:24:25.813Z,2.53
2019-04-18T15:26:53.266Z,2.47
2019-04-18T15:29:20.473Z,3.00
2019-04-18T15:31:48.732Z,2.57
2019-04-18T15:34:16.798Z,2.90
2019-04-18T15:36:44.229Z,2.97
2019-04-18T15:39:11.771Z,2.90
2019-04-18T15:41:40.394Z,2.97
2019-04-18T15:44:07.964Z,3.20
2019-04-18T15:46:50.603Z,2.90
2019-04-18T15:49:17.809Z,2.67
2019-04-18T15:51:45.533Z,3.40
2019-04-18T15:54:14.381Z,2.80
2019-04-18T15:56:41.657Z,3.17
2019-04-18T15:59:09.235Z,2.93
2019-04-18T16:01:36.486Z,3.00
2019-04-18T16:04:04.291Z,3.00
2019-04-18T16:06:32.661Z,2.40
2019-04-18T16:08:59.968Z,3.67
2019-04-18T16:11:27.268Z,3.10
2019-04-18T16:13:54.488Z,3.40
2019-04-18T16:16:22.136Z,2.73
2019-04-18T16:18:49.925Z,3.20
2019-04-18T16:21:17.123Z,3.03
2019-04-18T16:23:45.090Z,2.53
2019-04-18T16:26:14.030Z,2.73
2019-04-18T16:28:41.493Z,3.27
2019-04-18T16:31:09.201Z,2.50
2019-04-18T16:33:39.701Z,2.77
2019-04-18T16:36:06.258Z,2.70
2019-04-18T16:38:33.741Z,3.20
2019-04-18T16:41:00.957Z,2.83
2019-04-18T16:43:28.012Z,3.40
2019-04-18T16:45:55.232Z,3.13
2019-04-18T16:48:22.442Z,3.30
2019-04-18T16:50:49.559Z,3.30
2019-04-18T16:53:18.257Z,3.10
2019-04-18T16:55:45.741Z,3.20
2019-04-18T16:58:12.925Z,3.50
2019-04-18T17:00:44.279Z,2.87
2019-04-18T17:03:13.462Z,2.30
2019-04-18T17:05:40.610Z,2.97
2019-04-18T17:08:08.057Z,2.60
2019-04-18T17:10:35.324Z,3.10
2019-04-18T17:13:43.314Z,2.80
2019-04-18T17:19:30.989Z,3.40
2019-04-18T17:21:58.617Z,4.03
2019-04-18T17:24:38.214Z,3.10
2019-04-18T17:41:45.109Z,3.63
2019-04-18T17:44:17.789Z,3.10
2019-04-18T17:46:53.638Z,3.50
2019-04-18T17:52:43.546Z,2.90
2019-04-18T17:58:30.831Z,3.17
2019-04-18T18:04:37.689Z,3.40
2019-04-18T18:10:25.751Z,3.63
2019-04-18T18:12:52.381Z,3.30
2019-04-18T18:16:26.031Z,3.80
2019-04-18T18:18:56.238Z,3.70
2019-04-18T18:21:27.715Z,3.93
2019-04-18T18:33:57.732Z,4.43
2019-04-18T18:39:37.362Z,3.80
2019-04-18T18:51:29.988Z,4.10
2019-04-18T18:54:18.088Z,4.10
2019-04-18T18:57:06.222Z,4.47
2019-04-18T18:59:31.082Z,4.27
2019-04-18T19:02:19.734Z,4.10
2019-04-18T19:05:13.609Z,3.80
2019-04-18T19:08:27.219Z,3.60
2019-04-18T19:11:51.415Z,3.97
2019-04-18T19:17:14.114Z,4.77
2019-04-18T19:19:37.887Z,3.80
2019-04-18T19:22:06.894Z,4.13
2019-04-18T19:24:47.682Z,4.40
2019-04-18T19:36:47.505Z,3.83
2019-04-18T19:39:26.345Z,4.90
2019-04-18T19:42:00.654Z,4.03
2019-04-18T19:47:27.012Z,3.90
2019-04-18T19:50:47.947Z,4.00
2019-04-18T19:53:21.135Z,4.10
2019-04-18T19:55:49.694Z,4.23
2019-04-18T19:58:24.389Z,3.70
2019-04-18T20:01:21.283Z,4.10
2019-04-18T20:03:54.479Z,4.00
2019-04-18T20:06:44.026Z,4.30
2019-04-18T20:09:14.823Z,3.83
2019-04-18T20:11:51.498Z,4.00
2019-04-18T20:14:16.394Z,3.63
2019-04-18T20:23:08.175Z,3.20
2019-04-18T20:25:35.624Z,3.53
2019-04-18T20:28:14.573Z,3.77
2019-04-18T20:30:42.348Z,3.57
2019-04-18T20:34:04.084Z,4.20
2019-04-18T20:36:46.930Z,4.67
2019-04-18T20:39:37.120Z,3.50
2019-04-18T20:44:36.247Z,3.83
2019-04-18T20:50:04.925Z,3.67
2019-04-18T20:52:48.151Z,3.40
2019-04-18T20:58:10.501Z,4.00
2019-04-18T21:00:58.668Z,3.27
2019-04-18T21:03:30.174Z,3.60
2019-04-18T21:07:09.450Z,3.70
2019-04-18T21:15:33.594Z,3.53
2019-04-18T21:21:08.942Z,4.60
2019-04-18T21:23:39.092Z,3.33
2019-04-18T21:26:14.889Z,3.47
2019-04-18T21:28:39.565Z,3.43
2019-04-18T21:31:24.274Z,3.60
2019-04-18T21:34:14.656Z,2.93
2019-04-18T21:43:25.510Z,3.60
2019-04-18T21:46:11.189Z,3.97
2019-04-18T21:48:53.018Z,4.37
2019-04-18T21:51:19.039Z,3.70
2019-04-18T21:59:55.859Z,3.67
2019-04-18T22:05:52.224Z,3.03
2019-04-18T22:08:19.867Z,3.67
2019-04-18T22:13:44.876Z,4.30
2019-04-18T22:16:13.249Z,3.70
2019-04-18T22:18:41.637Z,4.10
2019-04-18T22:21:33.166Z,3.20
2019-04-18T22:24:08.232Z,4.17
2019-04-18T22:26:40.696Z,3.97
2019-04-18T22:29:15.039Z,4.27
2019-04-18T22:31:43.680Z,3.60
2019-04-18T22:34:17.752Z,4.10
2019-04-18T22:37:44.769Z,3.67
2019-04-18T22:40:19.890Z,3.83
2019-04-18T22:42:56.056Z,3.90
2019-04-18T22:48:31.809Z,4.13
2019-04-18T22:51:05.016Z,4.10
2019-04-18T22:54:00.823Z,4.03
2019-04-18T22:56:42.164Z,4.20
2019-04-18T22:59:13.979Z,3.70
2019-04-18T23:01:45.034Z,3.40
2019-04-18T23:04:22.002Z,3.83
2019-04-18T23:06:53.535Z,4.37
2019-04-18T23:09:33.133Z,3.80
2019-04-18T23:12:06.419Z,4.33
2019-04-18T23:14:32.207Z,4.50
2019-04-18T23:17:02.539Z,3.93
2019-04-18T23:19:43.747Z,4.00
2019-04-18T23:22:54.134Z,3.70
2019-04-18T23:26:02.391Z,4.20
2019-04-18T23:28:24.611Z,3.97
2019-04-18T23:31:16.151Z,3.80
2019-04-18T23:33:54.475Z,4.00
2019-04-18T23:36:28.651Z,4.70
2019-04-18T23:39:08.524Z,4.50
2019-04-18T23:42:16.698Z,4.07
2019-04-18T23:44:57.737Z,3.90
2019-04-18T23:47:27.602Z,4.13
2019-04-18T23:53:27.172Z,3.87
2019-04-18T23:56:01.778Z,4.10
2019-04-18T23:58:57.205Z,4.60
